sensor_id;sensor_type;location;lat;lon;timestamp;temperature;humidity
27781;DHT22;15167;1.318;103.762;2023-05-10T00:02:16;29.70;1.00
27781;DHT22;15167;1.318;103.762;2023-05-10T00:04:43;29.70;1.00
27781;DHT22;15167;1.318;103.762;2023-05-10T00:07:09;29.70;1.00
27781;DHT22;15167;1.318;103.762;2023-05-10T00:09:35;29.70;1.00
27781;DHT22;15167;1.318;103.762;2023-05-10T00:12:02;29.70;1.00
27781;DHT22;15167;1.318;103.762;2023-05-10T00:14:28;29.60;1.00
27781;DHT22;15167;1.318;103.762;2023-05-10T00:16:54;29.70;99.90
27781;DHT22;15167;1.318;103.762;2023-05-10T00:19:20;29.70;99.90
27781;DHT22;15167;1.318;103.762;2023-05-10T00:21:46;29.90;99.90
27781;DHT22;15167;1.318;103.762;2023-05-10T00:24:12;29.90;99.90
27781;DHT22;15167;1.318;103.762;2023-05-10T00:26:38;29.90;99.90
27781;DHT22;15167;1.318;103.762;2023-05-10T00:29:04;30.00;99.90
27781;DHT22;15167;1.318;103.762;2023-05-10T00:31:31;30.20;99.90
27781;DHT22;15167;1.318;103.762;2023-05-10T00:33:57;30.40;99.90
27781;DHT22;15167;1.318;103.762;2023-05-10T00:36:23;30.50;99.90
27781;DHT22;15167;1.318;103.762;2023-05-10T00:38:49;30.50;99.90
27781;DHT22;15167;1.318;103.762;2023-05-10T00:41:15;30.60;99.90
27781;DHT22;15167;1.318;103.762;2023-05-10T00:43:42;30.60;99.90
27781;DHT22;15167;1.318;103.762;2023-05-10T00:46:08;30.60;99.90
27781;DHT22;15167;1.318;103.762;2023-05-10T00:48:34;30.60;99.90
27781;DHT22;15167;1.318;103.762;2023-05-10T00:51:01;30.60;99.90
27781;DHT22;15167;1.318;103.762;2023-05-10T00:53:27;30.70;99.90
27781;DHT22;15167;1.318;103.762;2023-05-10T00:55:53;30.70;99.90
27781;DHT22;15167;1.318;103.762;2023-05-10T00:58:19;30.00;99.90
27781;DHT22;15167;1.318;103.762;2023-05-10T01:00:46;30.80;99.90
27781;DHT22;15167;1.318;103.762;2023-05-10T01:03:12;30.70;99.90
27781;DHT22;15167;1.318;103.762;2023-05-10T01:05:38;30.70;99.90
27781;DHT22;15167;1.318;103.762;2023-05-10T01:08:04;30.60;99.90
27781;DHT22;15167;1.318;103.762;2023-05-10T01:10:30;30.60;99.90
27781;DHT22;15167;1.318;103.762;2023-05-10T01:12:57;30.60;99.90
27781;DHT22;15167;1.318;103.762;2023-05-10T01:15:24;30.60;99.90
27781;DHT22;15167;1.318;103.762;2023-05-10T01:17:51;30.60;99.90
27781;DHT22;15167;1.318;103.762;2023-05-10T01:20:17;30.70;99.90
27781;DHT22;15167;1.318;103.762;2023-05-10T01:27:59;30.60;99.90
27781;DHT22;15167;1.318;103.762;2023-05-10T01:35:47;30.70;99.90
27781;DHT22;15167;1.318;103.762;2023-05-10T01:38:22;30.80;99.90
27781;DHT22;15167;1.318;103.762;2023-05-10T01:43:28;30.80;99.90
27781;DHT22;15167;1.318;103.762;2023-05-10T01:48:22;31.00;99.90
27781;DHT22;15167;1.318;103.762;2023-05-10T01:50:50;31.10;97.00
27781;DHT22;15167;1.318;103.762;2023-05-10T01:53:17;31.20;99.90
27781;DHT22;15167;1.318;103.762;2023-05-10T01:55:52;31.30;55.90
27781;DHT22;15167;1.318;103.762;2023-05-10T01:58:29;31.40;49.80
27781;DHT22;15167;1.318;103.762;2023-05-10T02:00:56;31.40;55.80
27781;DHT22;15167;1.318;103.762;2023-05-10T02:03:24;31.40;34.50
27781;DHT22;15167;1.318;103.762;2023-05-10T02:05:52;31.40;17.80
27781;DHT22;15167;1.318;103.762;2023-05-10T02:08:19;31.50;6.70
27781;DHT22;15167;1.318;103.762;2023-05-10T02:10:46;31.70;1.00
27781;DHT22;15167;1.318;103.762;2023-05-10T02:13:14;31.90;1.00
27781;DHT22;15167;1.318;103.762;2023-05-10T02:15:40;32.20;1.00
27781;DHT22;15167;1.318;103.762;2023-05-10T02:18:07;32.20;1.00
27781;DHT22;15167;1.318;103.762;2023-05-10T02:20:35;32.20;1.00
27781;DHT22;15167;1.318;103.762;2023-05-10T02:23:01;32.30;1.00
27781;DHT22;15167;1.318;103.762;2023-05-10T02:25:28;32.30;1.00
27781;DHT22;15167;1.318;103.762;2023-05-10T02:27:55;32.20;1.00
27781;DHT22;15167;1.318;103.762;2023-05-10T02:30:22;32.10;1.00
27781;DHT22;15167;1.318;103.762;2023-05-10T02:32:49;31.90;1.00
27781;DHT22;15167;1.318;103.762;2023-05-10T02:35:16;31.90;99.90
27781;DHT22;15167;1.318;103.762;2023-05-10T02:37:43;32.00;99.90
27781;DHT22;15167;1.318;103.762;2023-05-10T02:40:09;32.00;1.00
27781;DHT22;15167;1.318;103.762;2023-05-10T02:42:37;32.00;1.00
27781;DHT22;15167;1.318;103.762;2023-05-10T02:45:07;32.00;1.00
27781;DHT22;15167;1.318;103.762;2023-05-10T02:47:34;32.20;1.00
27781;DHT22;15167;1.318;103.762;2023-05-10T02:50:00;32.30;99.90
27781;DHT22;15167;1.318;103.762;2023-05-10T02:52:27;32.30;99.90
27781;DHT22;15167;1.318;103.762;2023-05-10T02:54:58;32.30;99.90
27781;DHT22;15167;1.318;103.762;2023-05-10T02:57:26;32.40;99.90
27781;DHT22;15167;1.318;103.762;2023-05-10T02:59:53;32.60;99.90
27781;DHT22;15167;1.318;103.762;2023-05-10T03:02:19;32.50;99.90
27781;DHT22;15167;1.318;103.762;2023-05-10T03:04:46;32.50;99.90
27781;DHT22;15167;1.318;103.762;2023-05-10T03:07:12;32.40;99.90
27781;DHT22;15167;1.318;103.762;2023-05-10T03:09:38;32.30;99.90
27781;DHT22;15167;1.318;103.762;2023-05-10T03:12:14;32.30;99.90
27781;DHT22;15167;1.318;103.762;2023-05-10T03:17:45;32.40;99.90
27781;DHT22;15167;1.318;103.762;2023-05-10T03:20:06;32.50;99.90
27781;DHT22;15167;1.318;103.762;2023-05-10T03:22:41;32.60;99.90
27781;DHT22;15167;1.318;103.762;2023-05-10T03:25:10;32.70;99.90
27781;DHT22;15167;1.318;103.762;2023-05-10T03:27:38;32.70;99.90
27781;DHT22;15167;1.318;103.762;2023-05-10T03:30:07;32.70;99.90
27781;DHT22;15167;1.318;103.762;2023-05-10T03:32:34;32.80;99.90
27781;DHT22;15167;1.318;103.762;2023-05-10T03:35:00;33.10;99.90
27781;DHT22;15167;1.318;103.762;2023-05-10T03:37:27;33.10;99.90
27781;DHT22;15167;1.318;103.762;2023-05-10T03:39:53;33.30;99.90
27781;DHT22;15167;1.318;103.762;2023-05-10T03:42:19;33.60;56.40
27781;DHT22;15167;1.318;103.762;2023-05-10T03:44:46;33.70;76.60
27781;DHT22;15167;1.318;103.762;2023-05-10T03:47:12;33.90;1.00
27781;DHT22;15167;1.318;103.762;2023-05-10T03:49:38;33.90;1.00
27781;DHT22;15167;1.318;103.762;2023-05-10T03:52:04;34.00;99.90
27781;DHT22;15167;1.318;103.762;2023-05-10T03:54:30;34.10;99.90
27781;DHT22;15167;1.318;103.762;2023-05-10T03:56:57;34.20;99.90
27781;DHT22;15167;1.318;103.762;2023-05-10T03:59:24;34.40;99.90
27781;DHT22;15167;1.318;103.762;2023-05-10T04:01:50;34.60;1.00
27781;DHT22;15167;1.318;103.762;2023-05-10T04:04:16;34.80;99.90
27781;DHT22;15167;1.318;103.762;2023-05-10T04:06:44;34.90;30.90
27781;DHT22;15167;1.318;103.762;2023-05-10T04:09:10;34.90;99.90
27781;DHT22;15167;1.318;103.762;2023-05-10T04:11:36;35.00;99.90
27781;DHT22;15167;1.318;103.762;2023-05-10T04:14:03;34.90;99.90
27781;DHT22;15167;1.318;103.762;2023-05-10T04:16:29;34.80;99.90
27781;DHT22;15167;1.318;103.762;2023-05-10T04:18:55;34.60;99.90
27781;DHT22;15167;1.318;103.762;2023-05-10T04:21:21;34.50;1.00
27781;DHT22;15167;1.318;103.762;2023-05-10T04:23:47;34.50;1.00
27781;DHT22;15167;1.318;103.762;2023-05-10T04:26:13;34.20;99.90
27781;DHT22;15167;1.318;103.762;2023-05-10T04:28:39;34.30;72.70
27781;DHT22;15167;1.318;103.762;2023-05-10T04:31:07;34.50;99.90
27781;DHT22;15167;1.318;103.762;2023-05-10T04:33:33;34.70;99.90
27781;DHT22;15167;1.318;103.762;2023-05-10T04:36:00;34.60;1.00
27781;DHT22;15167;1.318;103.762;2023-05-10T04:38:26;34.90;99.90
27781;DHT22;15167;1.318;103.762;2023-05-10T04:40:52;35.20;99.90
27781;DHT22;15167;1.318;103.762;2023-05-10T04:43:18;35.30;99.90
27781;DHT22;15167;1.318;103.762;2023-05-10T04:45:45;35.40;99.90
27781;DHT22;15167;1.318;103.762;2023-05-10T04:48:11;35.80;1.00
27781;DHT22;15167;1.318;103.762;2023-05-10T04:50:37;35.90;99.90
27781;DHT22;15167;1.318;103.762;2023-05-10T04:53:03;35.80;99.90
27781;DHT22;15167;1.318;103.762;2023-05-10T04:55:29;36.30;99.90
27781;DHT22;15167;1.318;103.762;2023-05-10T04:57:55;36.70;65.20
27781;DHT22;15167;1.318;103.762;2023-05-10T05:00:23;36.90;24.00
27781;DHT22;15167;1.318;103.762;2023-05-10T05:02:50;36.90;18.90
27781;DHT22;15167;1.318;103.762;2023-05-10T05:05:17;37.00;1.00
27781;DHT22;15167;1.318;103.762;2023-05-10T05:07:43;37.00;1.00
27781;DHT22;15167;1.318;103.762;2023-05-10T05:10:09;37.30;1.00
27781;DHT22;15167;1.318;103.762;2023-05-10T05:12:35;37.30;1.00
27781;DHT22;15167;1.318;103.762;2023-05-10T05:15:02;37.60;1.00
27781;DHT22;15167;1.318;103.762;2023-05-10T05:17:29;37.40;1.00
27781;DHT22;15167;1.318;103.762;2023-05-10T05:19:56;37.50;1.00
27781;DHT22;15167;1.318;103.762;2023-05-10T05:22:22;37.80;1.00
27781;DHT22;15167;1.318;103.762;2023-05-10T05:24:54;37.90;1.00
27781;DHT22;15167;1.318;103.762;2023-05-10T05:27:21;37.90;1.00
27781;DHT22;15167;1.318;103.762;2023-05-10T05:29:53;37.70;1.00
27781;DHT22;15167;1.318;103.762;2023-05-10T05:32:19;38.00;1.00
27781;DHT22;15167;1.318;103.762;2023-05-10T05:34:45;38.10;1.00
27781;DHT22;15167;1.318;103.762;2023-05-10T05:37:15;38.10;1.00
27781;DHT22;15167;1.318;103.762;2023-05-10T05:39:41;38.20;1.00
27781;DHT22;15167;1.318;103.762;2023-05-10T05:42:11;38.00;1.00
27781;DHT22;15167;1.318;103.762;2023-05-10T05:44:37;38.00;1.00
27781;DHT22;15167;1.318;103.762;2023-05-10T05:47:03;38.30;1.00
27781;DHT22;15167;1.318;103.762;2023-05-10T05:49:29;38.50;1.00
27781;DHT22;15167;1.318;103.762;2023-05-10T05:52:02;38.40;1.00
27781;DHT22;15167;1.318;103.762;2023-05-10T05:54:29;38.10;1.00
27781;DHT22;15167;1.318;103.762;2023-05-10T05:56:56;38.10;1.00
27781;DHT22;15167;1.318;103.762;2023-05-10T05:59:22;38.50;1.00
27781;DHT22;15167;1.318;103.762;2023-05-10T06:01:49;38.40;1.00
27781;DHT22;15167;1.318;103.762;2023-05-10T06:04:15;38.60;1.00
27781;DHT22;15167;1.318;103.762;2023-05-10T06:06:41;38.70;1.00
27781;DHT22;15167;1.318;103.762;2023-05-10T06:09:08;38.60;1.00
27781;DHT22;15167;1.318;103.762;2023-05-10T06:11:35;38.50;1.00
27781;DHT22;15167;1.318;103.762;2023-05-10T06:14:01;38.40;1.00
27781;DHT22;15167;1.318;103.762;2023-05-10T06:16:29;38.70;1.00
27781;DHT22;15167;1.318;103.762;2023-05-10T06:18:55;38.60;1.00
27781;DHT22;15167;1.318;103.762;2023-05-10T06:21:21;38.80;1.00
27781;DHT22;15167;1.318;103.762;2023-05-10T06:23:48;38.90;1.00
27781;DHT22;15167;1.318;103.762;2023-05-10T06:26:14;38.90;1.00
27781;DHT22;15167;1.318;103.762;2023-05-10T06:28:40;38.80;1.00
27781;DHT22;15167;1.318;103.762;2023-05-10T06:31:06;38.60;1.00
27781;DHT22;15167;1.318;103.762;2023-05-10T06:33:32;38.30;1.00
27781;DHT22;15167;1.318;103.762;2023-05-10T06:35:59;38.50;1.00
27781;DHT22;15167;1.318;103.762;2023-05-10T06:38:25;38.80;1.00
27781;DHT22;15167;1.318;103.762;2023-05-10T06:40:51;39.10;99.90
27781;DHT22;15167;1.318;103.762;2023-05-10T06:43:17;39.40;99.90
27781;DHT22;15167;1.318;103.762;2023-05-10T06:45:43;39.50;99.90
27781;DHT22;15167;1.318;103.762;2023-05-10T06:48:09;39.60;99.90
27781;DHT22;15167;1.318;103.762;2023-05-10T06:50:35;39.80;99.90
27781;DHT22;15167;1.318;103.762;2023-05-10T06:53:02;40.20;99.90
27781;DHT22;15167;1.318;103.762;2023-05-10T06:55:28;40.50;99.90
27781;DHT22;15167;1.318;103.762;2023-05-10T06:57:54;41.10;99.90
27781;DHT22;15167;1.318;103.762;2023-05-10T07:00:21;42.20;99.90
27781;DHT22;15167;1.318;103.762;2023-05-10T07:02:47;43.30;99.90
27781;DHT22;15167;1.318;103.762;2023-05-10T07:05:14;44.20;99.90
27781;DHT22;15167;1.318;103.762;2023-05-10T07:07:40;44.90;99.90
27781;DHT22;15167;1.318;103.762;2023-05-10T07:10:06;44.90;99.90
27781;DHT22;15167;1.318;103.762;2023-05-10T07:12:33;45.00;99.90
27781;DHT22;15167;1.318;103.762;2023-05-10T07:14:59;44.50;99.90
27781;DHT22;15167;1.318;103.762;2023-05-10T07:17:25;44.80;99.90
27781;DHT22;15167;1.318;103.762;2023-05-10T07:19:51;45.20;99.90
27781;DHT22;15167;1.318;103.762;2023-05-10T07:22:18;45.40;99.90
27781;DHT22;15167;1.318;103.762;2023-05-10T07:24:44;45.70;99.90
27781;DHT22;15167;1.318;103.762;2023-05-10T07:27:10;45.70;99.90
27781;DHT22;15167;1.318;103.762;2023-05-10T07:29:36;45.80;99.90
27781;DHT22;15167;1.318;103.762;2023-05-10T07:32:02;45.90;99.90
27781;DHT22;15167;1.318;103.762;2023-05-10T07:34:29;45.50;99.90
27781;DHT22;15167;1.318;103.762;2023-05-10T07:36:57;44.50;99.90
27781;DHT22;15167;1.318;103.762;2023-05-10T07:39:23;43.60;99.90
27781;DHT22;15167;1.318;103.762;2023-05-10T07:41:50;42.80;99.90
27781;DHT22;15167;1.318;103.762;2023-05-10T07:44:16;42.20;99.90
27781;DHT22;15167;1.318;103.762;2023-05-10T07:46:44;41.50;99.90
27781;DHT22;15167;1.318;103.762;2023-05-10T07:49:10;40.90;99.90
27781;DHT22;15167;1.318;103.762;2023-05-10T07:51:36;40.30;99.90
27781;DHT22;15167;1.318;103.762;2023-05-10T07:54:03;39.80;99.90
27781;DHT22;15167;1.318;103.762;2023-05-10T07:56:29;39.60;99.90
27781;DHT22;15167;1.318;103.762;2023-05-10T07:58:57;39.10;99.90
27781;DHT22;15167;1.318;103.762;2023-05-10T08:01:23;39.00;99.90
27781;DHT22;15167;1.318;103.762;2023-05-10T08:03:50;39.00;99.90
27781;DHT22;15167;1.318;103.762;2023-05-10T08:06:17;39.00;99.90
27781;DHT22;15167;1.318;103.762;2023-05-10T08:08:43;38.80;99.90
27781;DHT22;15167;1.318;103.762;2023-05-10T08:11:11;38.90;99.90
27781;DHT22;15167;1.318;103.762;2023-05-10T08:13:37;38.90;99.90
27781;DHT22;15167;1.318;103.762;2023-05-10T08:16:03;39.20;99.90
27781;DHT22;15167;1.318;103.762;2023-05-10T08:18:29;39.30;99.90
27781;DHT22;15167;1.318;103.762;2023-05-10T08:20:55;39.30;99.90
27781;DHT22;15167;1.318;103.762;2023-05-10T08:23:21;38.90;99.90
27781;DHT22;15167;1.318;103.762;2023-05-10T08:25:48;38.80;99.90
27781;DHT22;15167;1.318;103.762;2023-05-10T08:28:14;38.70;99.90
27781;DHT22;15167;1.318;103.762;2023-05-10T08:30:40;38.40;99.90
27781;DHT22;15167;1.318;103.762;2023-05-10T08:33:06;38.30;99.90
27781;DHT22;15167;1.318;103.762;2023-05-10T08:35:32;38.40;99.90
27781;DHT22;15167;1.318;103.762;2023-05-10T08:38:00;38.40;99.90
27781;DHT22;15167;1.318;103.762;2023-05-10T08:40:26;38.60;99.90
27781;DHT22;15167;1.318;103.762;2023-05-10T08:43:01;38.90;99.90
27781;DHT22;15167;1.318;103.762;2023-05-10T08:45:31;38.70;99.90
27781;DHT22;15167;1.318;103.762;2023-05-10T08:47:59;38.60;99.90
27781;DHT22;15167;1.318;103.762;2023-05-10T08:50:27;38.80;99.90
27781;DHT22;15167;1.318;103.762;2023-05-10T08:52:54;38.80;99.90
27781;DHT22;15167;1.318;103.762;2023-05-10T08:55:21;38.90;99.90
27781;DHT22;15167;1.318;103.762;2023-05-10T08:57:49;38.90;99.90
27781;DHT22;15167;1.318;103.762;2023-05-10T09:00:16;38.70;99.90
27781;DHT22;15167;1.318;103.762;2023-05-10T09:02:43;38.30;99.90
27781;DHT22;15167;1.318;103.762;2023-05-10T09:05:12;38.10;99.90
27781;DHT22;15167;1.318;103.762;2023-05-10T09:07:38;37.90;99.90
27781;DHT22;15167;1.318;103.762;2023-05-10T09:10:04;37.70;99.90
27781;DHT22;15167;1.318;103.762;2023-05-10T09:12:30;37.90;99.90
27781;DHT22;15167;1.318;103.762;2023-05-10T09:14:57;38.20;99.90
27781;DHT22;15167;1.318;103.762;2023-05-10T09:17:25;38.20;99.90
27781;DHT22;15167;1.318;103.762;2023-05-10T09:20:01;38.50;99.90
27781;DHT22;15167;1.318;103.762;2023-05-10T09:22:28;38.70;99.90
27781;DHT22;15167;1.318;103.762;2023-05-10T09:25:10;38.50;99.90
27781;DHT22;15167;1.318;103.762;2023-05-10T09:27:37;38.20;99.90
27781;DHT22;15167;1.318;103.762;2023-05-10T09:30:03;38.20;99.90
27781;DHT22;15167;1.318;103.762;2023-05-10T09:32:37;38.30;99.90
27781;DHT22;15167;1.318;103.762;2023-05-10T09:35:09;38.40;99.90
27781;DHT22;15167;1.318;103.762;2023-05-10T09:37:35;38.40;99.90
27781;DHT22;15167;1.318;103.762;2023-05-10T09:40:04;38.30;99.90
27781;DHT22;15167;1.318;103.762;2023-05-10T09:42:30;38.30;99.90
27781;DHT22;15167;1.318;103.762;2023-05-10T09:45:00;38.50;99.90
27781;DHT22;15167;1.318;103.762;2023-05-10T09:47:26;38.60;99.90
27781;DHT22;15167;1.318;103.762;2023-05-10T09:49:52;38.80;99.90
27781;DHT22;15167;1.318;103.762;2023-05-10T09:52:18;38.60;99.90
27781;DHT22;15167;1.318;103.762;2023-05-10T09:54:45;38.30;99.90
27781;DHT22;15167;1.318;103.762;2023-05-10T09:57:21;38.20;99.90
27781;DHT22;15167;1.318;103.762;2023-05-10T09:59:47;38.00;99.90
27781;DHT22;15167;1.318;103.762;2023-05-10T10:02:14;37.70;99.90
27781;DHT22;15167;1.318;103.762;2023-05-10T10:04:41;37.60;99.90
27781;DHT22;15167;1.318;103.762;2023-05-10T10:07:07;37.20;99.90
27781;DHT22;15167;1.318;103.762;2023-05-10T10:09:34;36.70;99.90
27781;DHT22;15167;1.318;103.762;2023-05-10T10:12:00;36.50;99.90
27781;DHT22;15167;1.318;103.762;2023-05-10T10:14:28;36.30;99.90
27781;DHT22;15167;1.318;103.762;2023-05-10T10:16:54;36.30;99.90
27781;DHT22;15167;1.318;103.762;2023-05-10T10:19:21;36.10;99.90
27781;DHT22;15167;1.318;103.762;2023-05-10T10:21:48;36.10;99.90
27781;DHT22;15167;1.318;103.762;2023-05-10T10:24:14;36.00;99.90
27781;DHT22;15167;1.318;103.762;2023-05-10T10:26:41;35.80;1.00
27781;DHT22;15167;1.318;103.762;2023-05-10T10:29:20;35.70;1.00
27781;DHT22;15167;1.318;103.762;2023-05-10T10:34:36;35.70;1.00
27781;DHT22;15167;1.318;103.762;2023-05-10T10:37:05;35.50;1.00
27781;DHT22;15167;1.318;103.762;2023-05-10T10:39:32;35.20;1.00
27781;DHT22;15167;1.318;103.762;2023-05-10T10:41:58;35.00;99.90
27781;DHT22;15167;1.318;103.762;2023-05-10T10:44:26;34.70;99.90
27781;DHT22;15167;1.318;103.762;2023-05-10T10:52:13;33.90;99.90
27781;DHT22;15167;1.318;103.762;2023-05-10T10:54:40;33.00;99.90
27781;DHT22;15167;1.318;103.762;2023-05-10T10:57:13;33.40;99.90
27781;DHT22;15167;1.318;103.762;2023-05-10T10:59:43;33.20;99.90
27781;DHT22;15167;1.318;103.762;2023-05-10T11:04:56;33.00;1.00
27781;DHT22;15167;1.318;103.762;2023-05-10T11:07:23;33.00;99.90
27781;DHT22;15167;1.318;103.762;2023-05-10T11:09:50;32.90;99.90
27781;DHT22;15167;1.318;103.762;2023-05-10T11:12:17;32.80;99.90
27781;DHT22;15167;1.318;103.762;2023-05-10T11:14:43;32.70;1.00
27781;DHT22;15167;1.318;103.762;2023-05-10T11:17:26;32.70;99.90
27781;DHT22;15167;1.318;103.762;2023-05-10T11:20:06;32.60;99.90
27781;DHT22;15167;1.318;103.762;2023-05-10T11:22:44;32.50;99.90
27781;DHT22;15167;1.318;103.762;2023-05-10T11:25:15;32.40;99.90
27781;DHT22;15167;1.318;103.762;2023-05-10T11:27:41;32.30;1.00
27781;DHT22;15167;1.318;103.762;2023-05-10T11:30:07;32.30;1.00
27781;DHT22;15167;1.318;103.762;2023-05-10T11:32:39;32.30;1.00
27781;DHT22;15167;1.318;103.762;2023-05-10T11:35:09;32.20;1.00
27781;DHT22;15167;1.318;103.762;2023-05-10T11:37:35;32.20;1.00
27781;DHT22;15167;1.318;103.762;2023-05-10T11:40:01;32.20;1.00
27781;DHT22;15167;1.318;103.762;2023-05-10T11:42:28;32.30;1.00
27781;DHT22;15167;1.318;103.762;2023-05-10T11:44:55;32.20;1.00
27781;DHT22;15167;1.318;103.762;2023-05-10T11:47:21;32.20;1.00
27781;DHT22;15167;1.318;103.762;2023-05-10T11:49:48;32.20;1.00
27781;DHT22;15167;1.318;103.762;2023-05-10T11:52:14;32.20;1.00
27781;DHT22;15167;1.318;103.762;2023-05-10T11:54:52;32.20;3.30
27781;DHT22;15167;1.318;103.762;2023-05-10T11:57:19;32.20;3.60
27781;DHT22;15167;1.318;103.762;2023-05-10T11:59:46;32.10;11.20
27781;DHT22;15167;1.318;103.762;2023-05-10T12:02:15;32.00;3.50
27781;DHT22;15167;1.318;103.762;2023-05-10T12:04:41;32.00;4.80
27781;DHT22;15167;1.318;103.762;2023-05-10T12:07:07;32.00;11.30
27781;DHT22;15167;1.318;103.762;2023-05-10T12:09:34;31.90;5.50
27781;DHT22;15167;1.318;103.762;2023-05-10T12:12:00;32.00;6.00
27781;DHT22;15167;1.318;103.762;2023-05-10T12:14:28;31.90;22.70
27781;DHT22;15167;1.318;103.762;2023-05-10T12:16:58;31.90;50.20
27781;DHT22;15167;1.318;103.762;2023-05-10T12:19:24;31.80;43.70
27781;DHT22;15167;1.318;103.762;2023-05-10T12:21:50;31.90;47.00
27781;DHT22;15167;1.318;103.762;2023-05-10T12:24:17;31.90;87.10
27781;DHT22;15167;1.318;103.762;2023-05-10T12:26:47;31.90;99.90
27781;DHT22;15167;1.318;103.762;2023-05-10T12:29:17;31.80;99.90
27781;DHT22;15167;1.318;103.762;2023-05-10T12:31:57;31.90;99.90
27781;DHT22;15167;1.318;103.762;2023-05-10T12:34:33;31.80;99.90
27781;DHT22;15167;1.318;103.762;2023-05-10T12:37:00;31.80;99.90
27781;DHT22;15167;1.318;103.762;2023-05-10T12:39:38;31.80;99.90
27781;DHT22;15167;1.318;103.762;2023-05-10T12:42:04;31.70;99.90
27781;DHT22;15167;1.318;103.762;2023-05-10T12:44:30;31.60;99.90
27781;DHT22;15167;1.318;103.762;2023-05-10T12:46:56;31.60;99.90
27781;DHT22;15167;1.318;103.762;2023-05-10T12:49:22;31.50;99.90
27781;DHT22;15167;1.318;103.762;2023-05-10T12:51:48;31.50;99.90
27781;DHT22;15167;1.318;103.762;2023-05-10T12:54:14;31.50;99.90
27781;DHT22;15167;1.318;103.762;2023-05-10T12:56:40;31.50;99.90
27781;DHT22;15167;1.318;103.762;2023-05-10T12:59:08;31.40;99.90
27781;DHT22;15167;1.318;103.762;2023-05-10T13:01:34;31.40;1.00
27781;DHT22;15167;1.318;103.762;2023-05-10T13:04:00;31.30;1.00
27781;DHT22;15167;1.318;103.762;2023-05-10T13:06:26;31.30;1.00
27781;DHT22;15167;1.318;103.762;2023-05-10T13:08:52;31.10;1.00
27781;DHT22;15167;1.318;103.762;2023-05-10T13:11:19;31.10;1.00
27781;DHT22;15167;1.318;103.762;2023-05-10T13:13:46;31.10;5.70
27781;DHT22;15167;1.318;103.762;2023-05-10T13:16:12;31.10;22.40
27781;DHT22;15167;1.318;103.762;2023-05-10T13:18:38;31.10;22.20
27781;DHT22;15167;1.318;103.762;2023-05-10T13:21:04;31.10;6.40
27781;DHT22;15167;1.318;103.762;2023-05-10T13:23:31;31.10;1.00
27781;DHT22;15167;1.318;103.762;2023-05-10T13:25:57;31.10;1.10
27781;DHT22;15167;1.318;103.762;2023-05-10T13:28:23;31.10;1.00
27781;DHT22;15167;1.318;103.762;2023-05-10T13:30:51;31.00;3.10
27781;DHT22;15167;1.318;103.762;2023-05-10T13:33:17;31.00;5.00
27781;DHT22;15167;1.318;103.762;2023-05-10T13:35:43;31.10;9.60
27781;DHT22;15167;1.318;103.762;2023-05-10T13:38:10;31.00;9.30
27781;DHT22;15167;1.318;103.762;2023-05-10T13:40:36;30.90;19.00
27781;DHT22;15167;1.318;103.762;2023-05-10T13:43:02;31.00;23.60
27781;DHT22;15167;1.318;103.762;2023-05-10T13:45:28;31.00;19.00
27781;DHT22;15167;1.318;103.762;2023-05-10T13:47:54;31.00;27.50
27781;DHT22;15167;1.318;103.762;2023-05-10T13:50:20;30.90;25.40
27781;DHT22;15167;1.318;103.762;2023-05-10T13:52:47;30.90;34.60
27781;DHT22;15167;1.318;103.762;2023-05-10T13:55:13;30.90;39.00
27781;DHT22;15167;1.318;103.762;2023-05-10T13:57:39;30.90;54.40
27781;DHT22;15167;1.318;103.762;2023-05-10T14:00:05;30.80;61.80
27781;DHT22;15167;1.318;103.762;2023-05-10T14:02:31;30.80;58.10
27781;DHT22;15167;1.318;103.762;2023-05-10T14:04:57;30.80;42.40
27781;DHT22;15167;1.318;103.762;2023-05-10T14:07:24;30.80;55.70
27781;DHT22;15167;1.318;103.762;2023-05-10T14:09:50;30.80;43.90
27781;DHT22;15167;1.318;103.762;2023-05-10T14:12:16;30.80;41.80
27781;DHT22;15167;1.318;103.762;2023-05-10T14:14:42;30.80;27.70
27781;DHT22;15167;1.318;103.762;2023-05-10T14:17:08;30.80;20.30
27781;DHT22;15167;1.318;103.762;2023-05-10T14:19:34;30.80;19.10
27781;DHT22;15167;1.318;103.762;2023-05-10T14:22:00;30.80;15.10
27781;DHT22;15167;1.318;103.762;2023-05-10T14:24:27;30.70;13.20
27781;DHT22;15167;1.318;103.762;2023-05-10T14:26:53;30.70;1.20
27781;DHT22;15167;1.318;103.762;2023-05-10T14:29:20;30.80;1.00
27781;DHT22;15167;1.318;103.762;2023-05-10T14:31:46;30.80;1.00
27781;DHT22;15167;1.318;103.762;2023-05-10T14:34:12;30.70;1.00
27781;DHT22;15167;1.318;103.762;2023-05-10T14:36:38;30.50;1.00
27781;DHT22;15167;1.318;103.762;2023-05-10T14:39:05;30.70;1.00
27781;DHT22;15167;1.318;103.762;2023-05-10T14:41:32;30.60;1.00
27781;DHT22;15167;1.318;103.762;2023-05-10T14:43:58;30.60;1.00
27781;DHT22;15167;1.318;103.762;2023-05-10T14:46:24;30.60;1.00
27781;DHT22;15167;1.318;103.762;2023-05-10T14:48:50;30.60;1.00
27781;DHT22;15167;1.318;103.762;2023-05-10T14:51:16;30.50;1.00
27781;DHT22;15167;1.318;103.762;2023-05-10T14:53:44;30.50;1.00
27781;DHT22;15167;1.318;103.762;2023-05-10T14:56:10;30.50;1.00
27781;DHT22;15167;1.318;103.762;2023-05-10T14:58:36;30.50;1.00
27781;DHT22;15167;1.318;103.762;2023-05-10T15:01:02;30.50;1.00
27781;DHT22;15167;1.318;103.762;2023-05-10T15:03:28;30.50;1.00
27781;DHT22;15167;1.318;103.762;2023-05-10T15:05:55;30.50;1.00
27781;DHT22;15167;1.318;103.762;2023-05-10T15:08:23;30.50;1.00
27781;DHT22;15167;1.318;103.762;2023-05-10T15:10:50;30.50;1.00
27781;DHT22;15167;1.318;103.762;2023-05-10T15:13:17;30.50;1.00
27781;DHT22;15167;1.318;103.762;2023-05-10T15:15:43;30.40;1.00
27781;DHT22;15167;1.318;103.762;2023-05-10T15:18:09;30.40;1.00
27781;DHT22;15167;1.318;103.762;2023-05-10T15:20:35;30.40;1.00
27781;DHT22;15167;1.318;103.762;2023-05-10T15:23:02;30.40;1.00
27781;DHT22;15167;1.318;103.762;2023-05-10T15:25:28;30.40;1.00
27781;DHT22;15167;1.318;103.762;2023-05-10T15:27:54;30.40;1.00
27781;DHT22;15167;1.318;103.762;2023-05-10T15:30:21;30.30;1.00
27781;DHT22;15167;1.318;103.762;2023-05-10T15:32:47;30.40;1.00
27781;DHT22;15167;1.318;103.762;2023-05-10T15:35:13;30.30;1.00
27781;DHT22;15167;1.318;103.762;2023-05-10T15:37:39;30.30;1.00
27781;DHT22;15167;1.318;103.762;2023-05-10T15:40:06;30.30;1.00
27781;DHT22;15167;1.318;103.762;2023-05-10T15:42:32;30.20;1.00
27781;DHT22;15167;1.318;103.762;2023-05-10T15:44:58;30.10;1.00
27781;DHT22;15167;1.318;103.762;2023-05-10T15:47:25;30.10;1.00
27781;DHT22;15167;1.318;103.762;2023-05-10T15:49:51;30.10;1.00
27781;DHT22;15167;1.318;103.762;2023-05-10T15:52:17;30.10;1.00